»·PEaware :: N978AP KPSC-KYKM

N978AP :: KPSC-KYKM

FLIGHT INFORMATION

Flight Status: Arrived
Operator: Privately registered:
United States
More flights under this callsign
Pilot: Jone M. (10385)
Aircraft: CESSNA 172 SKYHAWK
(C172)
More flights by this aircraft type
Origin: KPSC Tri-Cities
United States
Destination: KYKM Yakima Air Term/Mcallister
United States
More flights between these airports :: More routes between these airports
Route: +
File this flight plan on PilotEdge
Remarks:
Altitude:
(Current/Filed)
6,500ft
Speed:
(Current/Filed)
125kts
Departed: 06-Dec-18 01:28 PM
Arrived: 06-Dec-18 02:03 PM
Distance/Time
Traveled:
62nm/0:35
Distance/Time
To Go:
Arrived

Flight Plot

Page will automatically refresh every two minutes.

Flight plan parsing failed; only flown route is shown


Map Options




Map Legend


Flown Route
Filed Route
Departure Airport
Arrival Airport
Navaid (VOR, NDB)
Fix

Horizontal Profiles

Position Reports

Time Latitude Longitude Heading Altitude Ground
Speed
06-Dec-18 13:01 46.264437 -119.106066 251 410ft 0kts
06-Dec-18 13:02 46.264437 -119.106066 251 410ft 0kts
06-Dec-18 13:03 46.264437 -119.106066 251 410ft 0kts
06-Dec-18 13:04 46.264437 -119.106066 251 410ft 0kts
06-Dec-18 13:05 46.264437 -119.106066 251 410ft 0kts
06-Dec-18 13:06 46.264437 -119.106066 251 410ft 0kts
06-Dec-18 13:07 46.264437 -119.106066 251 410ft 0kts
06-Dec-18 13:08 46.264437 -119.106066 251 410ft 0kts
06-Dec-18 13:09 46.264437 -119.106066 251 410ft 0kts
06-Dec-18 13:10 46.264435 -119.106073 251 410ft 0kts
06-Dec-18 13:11 46.264435 -119.106073 251 410ft 0kts
06-Dec-18 13:12 46.264435 -119.106073 251 410ft 0kts
06-Dec-18 13:13 46.264435 -119.106073 251 410ft 0kts
06-Dec-18 13:14 46.264435 -119.106073 251 410ft 0kts
06-Dec-18 13:15 46.264435 -119.106073 251 410ft 0kts
06-Dec-18 13:16 46.264435 -119.106073 251 410ft 0kts
06-Dec-18 13:17 46.264435 -119.106073 251 410ft 0kts
06-Dec-18 13:18 46.264435 -119.106073 251 410ft 0kts
06-Dec-18 13:19 46.264435 -119.106076 251 410ft 0kts
06-Dec-18 13:20 46.264432 -119.106087 249 410ft 0kts
06-Dec-18 13:21 46.264429 -119.106104 251 410ft 0kts
06-Dec-18 13:22 46.263868 -119.106215 174 410ft 1kts
06-Dec-18 13:23 46.262890 -119.109894 253 406ft 12kts
06-Dec-18 13:24 46.261036 -119.116336 246 400ft 13kts
06-Dec-18 13:25 46.259989 -119.120431 284 401ft 10kts
06-Dec-18 13:26 46.260956 -119.121590 43 401ft 6kts
06-Dec-18 13:27 46.272545 -119.105794 16 1274ft 64kts
06-Dec-18 13:28 46.280146 -119.131616 287 1820ft 83kts
06-Dec-18 13:29 46.285006 -119.163054 286 1614ft 77kts
06-Dec-18 13:30 46.291349 -119.202237 289 1874ft 117kts
06-Dec-18 13:31 46.300468 -119.251182 286 1678ft 121kts
06-Dec-18 13:32 46.309979 -119.296744 290 1592ft 112kts
06-Dec-18 13:33 46.319378 -119.343423 288 1554ft 129kts
06-Dec-18 13:34 46.327908 -119.392375 288 1402ft 130kts
06-Dec-18 13:35 46.331342 -119.443856 258 1355ft 129kts
06-Dec-18 13:36 46.316261 -119.490664 237 1390ft 131kts
06-Dec-18 13:37 46.297389 -119.534169 242 1610ft 123kts
06-Dec-18 13:38 46.286237 -119.581079 265 1687ft 129kts
06-Dec-18 13:39 46.284293 -119.632014 272 1715ft 127kts
06-Dec-18 13:40 46.280671 -119.683287 265 1731ft 125kts
06-Dec-18 13:41 46.279099 -119.733864 268 1818ft 126kts
06-Dec-18 13:42 46.282299 -119.785101 280 1709ft 133kts
06-Dec-18 13:44 46.290742 -119.830069 295 2238ft 113kts
06-Dec-18 13:45 46.298628 -119.873133 294 2542ft 99kts
06-Dec-18 13:46 46.311458 -119.910815 293 2839ft 108kts
06-Dec-18 13:47 46.319904 -119.951589 295 3217ft 113kts
06-Dec-18 13:48 46.328801 -119.994129 299 3681ft 112kts
06-Dec-18 13:49 46.340525 -120.035980 279 4157ft 113kts
06-Dec-18 13:50 46.347717 -120.081188 299 4509ft 116kts
06-Dec-18 13:51 46.364360 -120.123177 300 4645ft 125kts
06-Dec-18 13:52 46.380730 -120.168438 295 4588ft 129kts
06-Dec-18 13:53 46.395861 -120.214753 290 4561ft 128kts
06-Dec-18 13:54 46.411123 -120.260514 301 4480ft 129kts
06-Dec-18 13:55 46.431425 -120.302118 302 4433ft 128kts
06-Dec-18 13:56 46.452450 -120.342996 309 4411ft 127kts
06-Dec-18 13:57 46.474415 -120.382784 310 4375ft 121kts
06-Dec-18 13:58 46.497574 -120.415200 318 3598ft 117kts
06-Dec-18 13:59 46.521059 -120.444183 321 2626ft 111kts
06-Dec-18 14:00 46.540680 -120.468883 347 2010ft 72kts
06-Dec-18 14:00 46.552590 -120.487040 303 1749ft 77kts
06-Dec-18 14:02 46.561013 -120.513671 289 1324ft 59kts
06-Dec-18 14:03 46.566126 -120.533953 286 1051ft 17kts
06-Dec-18 14:03 46.567105 -120.534234 0 1051ft 3kts
06-Dec-18 14:04 46.568788 -120.539804 290 1062ft 17kts
06-Dec-18 14:06 46.570585 -120.542518 1 1068ft 2kts
06-Dec-18 14:07 46.570706 -120.542915 171 1068ft 0kts

Navigation Log

Ident Type
Flight plan parsing failed, navigation log unavailable